»·PEaware :: N716TH KPSP-KSBD

N716TH :: KPSP-KSBD

FLIGHT INFORMATION

Flight Status: Arrived
Operator: Privately registered:
United States
More flights under this callsign
Pilot: Danny R. (17997)
Aircraft: CESSNA 172 SKYHAWK
(C172)
More flights by this aircraft type
Origin: KPSP Palm Springs Intl
United States
Destination: KSBD San Bernardino Intl
United States
More flights between these airports :: More routes between these airports
Route: KPSP BANDS KSBD
File this flight plan on PilotEdge
Remarks:
Altitude:
(Current/Filed)
4,000ft
Speed:
(Current/Filed)
100kts
Departed: 16-Feb-18 11:05 AM
Arrived: 16-Feb-18 11:39 AM
Distance/Time
Traveled:
40nm/0:34
Distance/Time
To Go:
Arrived

Flight Plot

Page will automatically refresh every two minutes.

Flight plan parsing failed; only flown route is shown


Map Options




Map Legend


Flown Route
Filed Route
Departure Airport
Arrival Airport
Navaid (VOR, NDB)
Fix

Horizontal Profiles

Position Reports

Time Latitude Longitude Heading Altitude Ground
Speed
16-Feb-18 10:50 33.822482 -116.496002 233 481ft 0kts
16-Feb-18 10:51 33.822482 -116.496002 232 481ft 0kts
16-Feb-18 10:52 33.822482 -116.496002 232 481ft 0kts
16-Feb-18 10:53 33.822482 -116.496002 232 481ft 0kts
16-Feb-18 10:54 33.822482 -116.496002 232 481ft 0kts
16-Feb-18 10:55 33.822482 -116.496002 232 481ft 0kts
16-Feb-18 10:56 33.822482 -116.496002 232 481ft 0kts
16-Feb-18 10:57 33.822482 -116.496002 232 481ft 0kts
16-Feb-18 10:58 33.822482 -116.496002 232 481ft 0kts
16-Feb-18 10:59 33.822482 -116.496002 232 481ft 0kts
16-Feb-18 11:00 33.822482 -116.496002 232 481ft 0kts
16-Feb-18 11:01 33.822482 -116.496002 232 481ft 0kts
16-Feb-18 11:02 33.822482 -116.496002 232 481ft 0kts
16-Feb-18 11:03 33.822482 -116.496002 232 481ft 0kts
16-Feb-18 11:04 33.822482 -116.496002 232 481ft 0kts
16-Feb-18 11:05 33.822429 -116.496093 238 481ft 5kts
16-Feb-18 11:06 33.824715 -116.498785 17 481ft 12kts
16-Feb-18 11:07 33.824915 -116.498877 275 481ft 0kts
16-Feb-18 11:08 33.824682 -116.499460 235 481ft 9kts
16-Feb-18 11:09 33.824606 -116.499595 235 481ft 0kts
16-Feb-18 11:10 33.824606 -116.499595 235 481ft 0kts
16-Feb-18 11:11 33.824606 -116.499595 235 481ft 0kts
16-Feb-18 11:12 33.832366 -116.506852 328 768ft 73kts
16-Feb-18 11:13 33.831362 -116.520547 176 1630ft 79kts
16-Feb-18 11:14 33.810735 -116.507822 158 2488ft 80kts
16-Feb-18 11:15 33.812945 -116.524595 318 3248ft 77kts
16-Feb-18 11:16 33.830301 -116.539823 320 3967ft 84kts
16-Feb-18 11:17 33.851006 -116.558235 319 4142ft 93kts
16-Feb-18 11:18 33.872557 -116.580318 317 3975ft 110kts
16-Feb-18 11:19 33.893251 -116.603795 300 3959ft 93kts
16-Feb-18 11:20 33.906344 -116.629494 300 3959ft 88kts
16-Feb-18 11:21 33.913225 -116.655737 279 3988ft 84kts
16-Feb-18 11:22 33.917291 -116.683655 279 4000ft 86kts
16-Feb-18 11:23 33.921441 -116.712153 279 3998ft 86kts
16-Feb-18 11:24 33.925660 -116.741104 279 3999ft 89kts
16-Feb-18 11:25 33.927950 -116.771244 269 3999ft 91kts
16-Feb-18 11:26 33.927600 -116.801824 270 3999ft 91kts
16-Feb-18 11:27 33.920471 -116.831300 250 4030ft 97kts
16-Feb-18 11:28 33.918055 -116.864725 270 4025ft 103kts
16-Feb-18 11:29 33.919674 -116.899572 287 4020ft 105kts
16-Feb-18 11:30 33.932236 -116.931762 299 3991ft 106kts
16-Feb-18 11:31 33.947809 -116.961539 308 3989ft 104kts
16-Feb-18 11:32 33.964166 -116.990647 305 3988ft 104kts
16-Feb-18 11:33 33.980006 -117.020102 303 3933ft 105kts
16-Feb-18 11:34 33.995589 -117.048681 302 3928ft 99kts
16-Feb-18 11:35 34.009629 -117.074957 306 3954ft 89kts
16-Feb-18 11:36 34.023341 -117.100663 305 3955ft 93kts
16-Feb-18 11:37 34.037356 -117.126974 305 3953ft 93kts
16-Feb-18 11:38 34.051158 -117.153429 288 3953ft 94kts
16-Feb-18 11:39 34.057341 -117.185016 284 3954ft 97kts
16-Feb-18 11:40 34.063709 -117.216571 285 3537ft 97kts
16-Feb-18 11:41 34.063028 -117.249278 253 2991ft 98kts
16-Feb-18 11:42 34.055167 -117.280964 275 2468ft 99kts
16-Feb-18 11:43 34.074899 -117.299112 340 2049ft 86kts
16-Feb-18 11:44 34.081788 -117.280145 73 1651ft 63kts
16-Feb-18 11:45 34.087803 -117.259981 71 1256ft 62kts
16-Feb-18 11:46 34.092843 -117.243220 68 1161ft 26kts
16-Feb-18 11:47 34.094456 -117.240795 33 1161ft 0kts
16-Feb-18 11:48 34.095272 -117.240096 35 1161ft 16kts
16-Feb-18 11:49 34.098255 -117.240299 272 1161ft 22kts
16-Feb-18 11:50 34.099899 -117.242915 55 1161ft 0kts
16-Feb-18 11:51 34.100051 -117.242467 96 1161ft 0kts

Navigation Log

Ident Type
Flight plan parsing failed, navigation log unavailable